createdAt,value
2022-08-25T00:03:50.273Z,100.00
2022-08-25T00:08:59.685Z,100.00
2022-08-25T00:14:11.576Z,100.00
2022-08-25T00:19:21.597Z,100.00
2022-08-25T00:24:27.738Z,100.00
2022-08-25T00:29:38.182Z,100.00
2022-08-25T00:34:43.177Z,100.00
2022-08-25T00:39:48.361Z,100.00
2022-08-25T00:44:56.434Z,100.00
2022-08-25T00:50:04.273Z,100.00
2022-08-25T00:55:14.652Z,100.00
2022-08-25T01:00:30.411Z,100.00
2022-08-25T01:05:35.950Z,100.00
2022-08-25T01:10:44.320Z,100.00
2022-08-25T01:15:55.942Z,100.00
2022-08-25T01:21:03.552Z,100.00
2022-08-25T01:26:12.743Z,100.00
2022-08-25T01:31:24.053Z,100.00
2022-08-25T01:36:33.323Z,100.00
2022-08-25T01:41:52.012Z,100.00
2022-08-25T01:46:57.458Z,100.00
2022-08-25T01:52:10.563Z,100.00
2022-08-25T01:57:15.829Z,100.00
2022-08-25T02:02:20.738Z,100.00
2022-08-25T02:07:28.338Z,100.00
2022-08-25T02:12:33.415Z,100.00
2022-08-25T02:17:40.418Z,100.00
2022-08-25T02:22:53.110Z,100.00
2022-08-25T02:28:02.663Z,100.00
2022-08-25T02:33:07.544Z,100.00
2022-08-25T02:38:14.984Z,100.00
2022-08-25T02:43:19.873Z,100.00
2022-08-25T02:48:24.963Z,100.00
2022-08-25T02:53:33.177Z,100.00
2022-08-25T02:58:39.360Z,100.00
2022-08-25T03:03:47.115Z,100.00
2022-08-25T03:08:55.631Z,100.00
2022-08-25T03:14:00.723Z,100.00
2022-08-25T03:19:06.002Z,100.00
2022-08-25T03:24:13.656Z,100.00
2022-08-25T03:29:19.062Z,100.00
2022-08-25T03:34:25.754Z,100.00
2022-08-25T03:39:33.716Z,100.00
2022-08-25T03:44:38.698Z,100.00
2022-08-25T03:49:43.878Z,100.00
2022-08-25T03:54:51.601Z,100.00
2022-08-25T03:59:56.702Z,100.00
2022-08-25T04:05:01.761Z,100.00
2022-08-25T04:10:11.234Z,100.00
2022-08-25T04:15:16.224Z,100.00
2022-08-25T04:20:21.527Z,100.00
2022-08-25T04:25:31.500Z,100.00
2022-08-25T04:30:36.355Z,100.00
2022-08-25T04:35:43.830Z,100.00
2022-08-25T04:40:58.810Z,100.00
2022-08-25T04:46:12.565Z,100.00
2022-08-25T04:51:20.392Z,100.00
2022-08-25T04:56:28.261Z,100.00
2022-08-25T05:01:33.604Z,100.00
2022-08-25T05:06:40.971Z,100.00
2022-08-25T05:11:48.635Z,100.00
2022-08-25T05:16:53.559Z,100.00
2022-08-25T05:21:58.558Z,100.00
2022-08-25T05:27:10.886Z,100.00
2022-08-25T05:32:15.906Z,100.00
2022-08-25T05:37:23.008Z,100.00
2022-08-25T05:42:31.092Z,100.00
2022-08-25T05:47:36.918Z,100.00
2022-08-25T05:52:43.442Z,100.00
2022-08-25T05:57:50.990Z,99.89
2022-08-25T06:02:56.395Z,99.79
2022-08-25T06:08:01.741Z,94.24
2022-08-25T06:13:29.030Z,97.99
2022-08-25T06:18:37.686Z,94.63
2022-08-25T06:23:43.275Z,100.00
2022-08-25T06:28:50.917Z,95.46
2022-08-25T06:33:56.472Z,100.00
2022-08-25T06:39:01.566Z,100.00
2022-08-25T06:44:11.571Z,100.00
2022-08-25T06:49:16.921Z,92.80
2022-08-25T06:54:21.907Z,100.00
2022-08-25T06:59:32.158Z,94.32
2022-08-25T07:04:38.787Z,86.01
2022-08-25T07:09:43.956Z,88.82
2022-08-25T07:15:10.199Z,86.76
2022-08-25T07:20:16.927Z,88.71
2022-08-25T07:25:24.367Z,88.35
2022-08-25T07:30:32.069Z,89.88
2022-08-25T07:35:38.002Z,96.04
2022-08-25T07:40:43.276Z,96.46
2022-08-25T07:45:53.408Z,100.00
2022-08-25T07:50:58.351Z,93.20
2022-08-25T08:01:15.928Z,95.60
2022-08-25T08:06:23.552Z,96.79
2022-08-25T08:11:31.839Z,98.54
2022-08-25T08:16:39.796Z,100.00
2022-08-25T08:21:46.798Z,97.18
2022-08-25T08:26:58.696Z,100.00
2022-08-25T08:32:09.124Z,97.06
2022-08-25T08:37:14.001Z,94.99
2022-08-25T08:42:35.659Z,98.27
2022-08-25T08:47:53.164Z,97.78
2022-08-25T08:53:04.158Z,94.04
2022-08-25T08:58:14.924Z,93.51
2022-08-25T09:03:32.498Z,91.71
2022-08-25T09:08:38.349Z,94.56
2022-08-25T09:14:07.181Z,93.40
2022-08-25T09:19:28.955Z,93.47
2022-08-25T09:24:52.704Z,92.63
2022-08-25T09:30:07.484Z,94.59
2022-08-25T09:35:22.614Z,93.53
2022-08-25T09:40:27.843Z,92.54
2022-08-25T09:45:43.622Z,93.01
2022-08-25T09:50:51.910Z,94.69
2022-08-25T09:56:04.865Z,93.55
2022-08-25T10:01:17.490Z,93.22
2022-08-25T10:06:27.306Z,93.46
2022-08-25T10:11:49.077Z,89.90
2022-08-25T10:16:55.361Z,88.80
2022-08-25T10:22:10.909Z,90.67
2022-08-25T10:27:28.739Z,89.44
2022-08-25T10:32:47.505Z,90.06
2022-08-25T10:38:11.725Z,90.71
2022-08-25T10:43:33.869Z,93.38
2022-08-25T10:48:53.774Z,91.46
2022-08-25T10:54:10.016Z,89.02
2022-08-25T10:59:36.199Z,88.85
2022-08-25T11:04:47.154Z,85.67
2022-08-25T11:10:00.686Z,84.39
2022-08-25T11:15:12.158Z,85.50
2022-08-25T11:20:26.819Z,83.43
2022-08-25T11:25:38.445Z,82.65
2022-08-25T11:30:44.708Z,80.60
2022-08-25T11:35:55.535Z,80.34
2022-08-25T11:41:13.103Z,80.25
2022-08-25T12:20:02.076Z,80.53
2022-08-25T12:25:11.775Z,80.69
2022-08-25T12:30:23.905Z,79.63
2022-08-25T12:35:35.920Z,78.08
2022-08-25T12:40:56.463Z,77.47
2022-08-25T12:46:31.972Z,75.80
2022-08-25T12:51:59.263Z,77.61
2022-08-25T12:57:09.554Z,78.66
2022-08-25T13:02:56.647Z,79.26
2022-08-25T13:08:26.917Z,80.41
2022-08-25T13:13:48.198Z,79.21
2022-08-25T13:18:53.627Z,78.93
2022-08-25T13:24:05.751Z,79.37
2022-08-25T13:29:18.408Z,78.48
2022-08-25T13:34:34.251Z,80.39
2022-08-25T13:39:56.542Z,80.31
2022-08-25T13:45:03.478Z,78.25
2022-08-25T13:50:35.457Z,78.46
2022-08-25T13:55:53.269Z,77.74
2022-08-25T14:01:22.787Z,79.07
2022-08-25T14:06:37.433Z,76.14
2022-08-25T14:11:50.224Z,75.32
2022-08-25T14:17:16.448Z,79.40
2022-08-25T14:22:27.228Z,78.42
2022-08-25T14:27:38.962Z,75.91
2022-08-25T14:32:56.346Z,79.21
2022-08-25T14:38:01.589Z,81.22
2022-08-25T14:43:10.851Z,81.70
2022-08-25T14:48:24.345Z,82.94
2022-08-25T14:53:30.007Z,78.27
2022-08-25T14:58:48.527Z,79.90
2022-08-25T15:04:04.147Z,82.62
2022-08-25T15:09:12.167Z,84.49
2022-08-25T15:14:28.881Z,85.12
2022-08-25T15:19:38.870Z,84.47
2022-08-25T15:24:43.844Z,84.25
2022-08-25T15:29:51.930Z,85.14
2022-08-25T15:34:57.770Z,87.15
2022-08-25T15:40:02.730Z,90.39
2022-08-25T15:45:15.234Z,91.17
2022-08-25T15:50:25.999Z,90.39
2022-08-25T15:55:33.233Z,89.49
2022-08-25T16:00:43.702Z,89.87
2022-08-25T16:05:57.170Z,89.25
2022-08-25T16:11:02.710Z,90.89
2022-08-25T16:16:10.516Z,92.46
2022-08-25T16:21:17.331Z,91.34
2022-08-25T16:26:22.264Z,91.34
2022-08-25T16:31:32.617Z,90.56
2022-08-25T16:36:38.156Z,92.64
2022-08-25T16:41:43.424Z,93.82
2022-08-25T16:46:54.313Z,95.07
2022-08-25T16:51:59.540Z,96.20
2022-08-25T16:57:05.912Z,95.67
2022-08-25T17:02:13.521Z,99.04
2022-08-25T17:07:23.696Z,98.47
2022-08-25T17:12:29.943Z,97.23
2022-08-25T17:17:37.517Z,97.21
2022-08-25T17:22:43.391Z,98.60
2022-08-25T17:27:48.470Z,100.00
2022-08-25T17:32:56.334Z,100.00
2022-08-25T17:38:01.325Z,100.00
2022-08-25T17:43:09.135Z,100.00
2022-08-25T17:48:18.128Z,100.00
2022-08-25T17:53:24.583Z,100.00
2022-08-25T17:58:30.650Z,100.00
2022-08-25T18:03:38.259Z,100.00
2022-08-25T18:08:43.627Z,100.00
2022-08-25T18:13:50.563Z,100.00
2022-08-25T18:18:58.984Z,100.00
2022-08-25T18:24:03.899Z,100.00
2022-08-25T18:29:12.177Z,100.00
2022-08-25T18:34:20.241Z,100.00
2022-08-25T18:39:37.624Z,100.00
2022-08-25T18:44:46.793Z,100.00
2022-08-25T18:49:54.911Z,100.00
2022-08-25T18:55:00.388Z,100.00
2022-08-25T19:00:08.844Z,100.00
2022-08-25T19:05:17.531Z,100.00
2022-08-25T19:10:24.087Z,100.00
2022-08-25T19:15:30.605Z,100.00
2022-08-25T19:20:41.356Z,100.00
2022-08-25T19:25:47.350Z,100.00
2022-08-25T19:30:52.560Z,100.00
2022-08-25T19:36:00.903Z,100.00
2022-08-25T19:41:10.710Z,100.00
2022-08-25T19:46:20.121Z,100.00
2022-08-25T19:51:27.780Z,100.00
2022-08-25T19:56:36.254Z,100.00
2022-08-25T20:01:42.992Z,100.00
2022-08-25T20:06:50.648Z,100.00
2022-08-25T20:11:56.439Z,100.00
2022-08-25T20:17:03.406Z,100.00
2022-08-25T20:22:24.960Z,100.00
2022-08-25T20:27:35.837Z,100.00
2022-08-25T20:32:42.555Z,100.00
2022-08-25T20:37:54.049Z,100.00
2022-08-25T20:43:03.132Z,100.00
2022-08-25T20:48:09.050Z,100.00
2022-08-25T20:53:18.511Z,100.00
2022-08-25T20:58:23.468Z,100.00
2022-08-25T21:03:31.808Z,100.00
2022-08-25T21:08:46.587Z,100.00
2022-08-25T21:13:51.977Z,100.00
2022-08-25T21:18:57.118Z,100.00
2022-08-25T21:24:09.690Z,100.00
2022-08-25T21:29:15.065Z,100.00
2022-08-25T21:34:21.496Z,100.00
2022-08-25T21:39:32.468Z,100.00
2022-08-25T21:44:37.365Z,100.00
2022-08-25T21:49:42.561Z,100.00
2022-08-25T21:54:50.111Z,100.00
2022-08-25T21:59:55.023Z,100.00
2022-08-25T22:05:00.167Z,100.00
2022-08-25T22:10:16.412Z,100.00
2022-08-25T22:15:23.427Z,100.00
2022-08-25T22:20:28.834Z,100.00
2022-08-25T22:25:36.327Z,100.00
2022-08-25T22:30:42.933Z,100.00
2022-08-25T22:35:48.063Z,100.00
2022-08-25T22:40:55.885Z,100.00
2022-08-25T22:46:05.219Z,100.00
2022-08-25T22:51:13.978Z,100.00
2022-08-25T22:56:29.887Z,100.00
2022-08-25T23:01:37.701Z,100.00
2022-08-25T23:06:44.731Z,100.00
2022-08-25T23:11:52.444Z,100.00
2022-08-25T23:16:58.553Z,100.00
2022-08-25T23:22:16.323Z,100.00
2022-08-25T23:27:24.571Z,100.00
2022-08-25T23:32:29.678Z,100.00
2022-08-25T23:37:35.343Z,100.00
2022-08-25T23:42:43.059Z,100.00
2022-08-25T23:47:52.594Z,100.00
2022-08-25T23:52:57.625Z,100.00
2022-08-25T23:58:06.164Z,100.00
